Time;durP1;ratioP1;P1;durP2;ratioP2;P2;SDS_P1;SDS_P2;PMS_P1;PMS_P2;Temp;Humidity;BMP_temperature;BMP_pressure;BME280_temperature;BME280_humidity;BME280_pressure;Samples;Min_cycle;Max_cycle;Signal;HPM_P1;HPM_P2
2024/04/07 00:01:41;;;;;;;7.93;5.43;;;14.30;98.00;;;;;;5011275;28;20521;-67
2024/04/07 00:04:07;;;;;;;7.90;5.10;;;14.30;98.00;;;;;;5011335;28;20464;-67
2024/04/07 00:06:36;;;;;;;8.07;4.70;;;14.10;98.00;;;;;;5012402;28;20459;-67
2024/04/07 00:09:03;;;;;;;9.57;4.67;;;14.00;98.00;;;;;;5012297;28;20452;-67
2024/04/07 00:11:30;;;;;;;9.07;4.73;;;14.10;98.00;;;;;;5012332;28;20463;-67
2024/04/07 00:13:58;;;;;;;10.67;5.57;;;14.00;98.00;;;;;;5012288;28;20481;-67
2024/04/07 00:16:25;;;;;;;7.33;4.60;;;14.00;98.00;;;;;;5011179;28;20885;-67
2024/04/07 00:18:51;;;;;;;7.60;4.83;;;13.90;98.00;;;;;;5012125;28;20456;-67
2024/04/07 00:21:18;;;;;;;14.33;5.63;;;13.80;98.00;;;;;;5012133;28;20468;-68
2024/04/07 00:23:46;;;;;;;8.83;4.90;;;13.80;98.00;;;;;;5012236;28;20950;-68
2024/04/07 00:26:13;;;;;;;10.47;4.90;;;14.00;98.00;;;;;;5012226;28;20460;-67
2024/04/07 00:28:39;;;;;;;8.80;5.10;;;14.00;98.00;;;;;;5012328;28;20474;-68
2024/04/07 00:31:07;;;;;;;9.83;4.97;;;14.10;98.00;;;;;;5011877;28;21149;-68
2024/04/07 00:33:34;;;;;;;10.20;5.40;;;14.20;98.00;;;;;;5011708;28;20455;-67
2024/04/07 00:36:02;;;;;;;7.90;4.80;;;14.00;98.00;;;;;;5011977;28;20473;-67
2024/04/07 00:38:28;;;;;;;7.43;4.90;;;14.00;98.00;;;;;;5012186;28;20444;-67
2024/04/07 00:40:59;;;;;;;6.50;4.40;;;14.10;98.00;;;;;;5011602;28;20513;-68
2024/04/07 00:43:26;;;;;;;10.60;4.77;;;14.10;98.00;;;;;;5011884;28;20459;-68
2024/04/07 00:45:53;;;;;;;10.87;4.93;;;13.90;98.00;;;;;;5011843;28;20582;-67
2024/04/07 00:48:20;;;;;;;10.07;5.40;;;13.80;98.00;;;;;;5011261;28;20455;-68
2024/04/07 00:50:48;;;;;;;9.27;5.47;;;13.70;98.00;;;;;;5011799;28;20455;-67
2024/04/07 00:53:15;;;;;;;8.93;5.07;;;13.70;98.00;;;;;;5011820;28;20780;-67
2024/04/07 00:55:43;;;;;;;9.50;4.83;;;13.50;98.00;;;;;;5011916;28;20475;-67
2024/04/07 00:58:11;;;;;;;8.80;4.77;;;13.50;98.00;;;;;;5011615;28;20459;-67
2024/04/07 01:00:40;;;;;;;7.33;4.43;;;13.70;98.00;;;;;;5011791;28;20487;-67
2024/04/07 01:03:06;;;;;;;11.13;4.77;;;13.80;98.00;;;;;;5011614;28;20493;-67
2024/04/07 01:05:42;;;;;;;8.10;4.80;;;13.70;98.00;;;;;;5010258;28;20472;-67
2024/04/07 01:08:09;;;;;;;11.03;5.13;;;13.60;98.00;;;;;;5010296;28;20908;-67
2024/04/07 01:10:38;;;;;;;9.63;5.10;;;13.70;98.00;;;;;;5011444;28;20814;-67
2024/04/07 01:13:06;;;;;;;6.97;4.37;;;13.70;98.00;;;;;;5010212;28;20466;-67
2024/04/07 01:15:36;;;;;;;9.03;5.13;;;13.60;98.00;;;;;;5011373;28;20459;-67
2024/04/07 01:18:04;;;;;;;10.63;4.57;;;13.60;98.00;;;;;;5011409;28;20458;-67
2024/04/07 01:20:33;;;;;;;8.97;4.73;;;13.40;98.00;;;;;;5011429;28;20486;-67
2024/04/07 01:22:59;;;;;;;7.10;4.60;;;13.40;98.00;;;;;;5011657;28;20546;-68
2024/04/07 01:25:28;;;;;;;9.57;4.63;;;13.30;98.00;;;;;;5011617;28;20559;-67
2024/04/07 01:27:56;;;;;;;9.67;5.00;;;13.20;98.00;;;;;;5011363;28;20455;-67
2024/04/07 01:30:23;;;;;;;10.13;5.27;;;13.20;98.00;;;;;;5011714;28;20982;-67
2024/04/07 01:32:50;;;;;;;8.00;4.60;;;13.20;98.00;;;;;;5011698;28;20463;-67
2024/04/07 01:35:18;;;;;;;9.30;4.47;;;13.00;98.00;;;;;;5011875;28;20472;-67
2024/04/07 01:37:44;;;;;;;7.67;4.70;;;13.10;98.00;;;;;;5011083;28;20954;-67
2024/04/07 01:40:11;;;;;;;11.13;4.77;;;13.10;98.00;;;;;;5010319;28;21072;-67
2024/04/07 01:42:40;;;;;;;9.73;4.70;;;13.10;98.00;;;;;;5010213;28;20455;-68
2024/04/07 01:45:08;;;;;;;8.37;4.50;;;13.20;98.00;;;;;;5011144;28;20467;-67
2024/04/07 01:47:35;;;;;;;8.53;5.07;;;13.20;98.00;;;;;;5011212;28;20460;-67
2024/04/07 01:50:04;;;;;;;7.03;4.40;;;13.20;98.00;;;;;;5011283;28;20462;-67
2024/04/07 01:52:30;;;;;;;7.60;4.70;;;13.20;98.00;;;;;;5011088;28;20455;-67
2024/04/07 01:54:57;;;;;;;10.40;5.17;;;13.20;98.00;;;;;;5010988;28;20470;-67
2024/04/07 01:57:24;;;;;;;11.70;5.10;;;13.20;98.00;;;;;;5011098;28;20831;-67
2024/04/07 01:59:52;;;;;;;8.20;4.90;;;12.90;98.00;;;;;;5011095;28;21032;-67
2024/04/07 02:02:19;;;;;;;7.57;4.60;;;12.80;98.00;;;;;;5014785;28;20467;-67
2024/04/07 02:04:46;;;;;;;10.37;4.90;;;12.80;98.00;;;;;;5014785;28;20467;-67
2024/04/07 02:07:13;;;;;;;8.87;5.30;;;12.80;98.00;;;;;;5014539;28;20458;-67
2024/04/07 02:09:40;;;;;;;7.10;4.30;;;12.80;98.00;;;;;;5014608;28;20616;-67
2024/04/07 02:12:07;;;;;;;8.27;4.90;;;12.80;98.00;;;;;;5014761;28;20457;-67
2024/04/07 02:14:34;;;;;;;8.77;4.57;;;12.80;98.00;;;;;;5014692;28;20491;-67
2024/04/07 02:17:02;;;;;;;7.63;5.07;;;12.80;98.00;;;;;;5014381;28;20455;-67
2024/04/07 02:19:29;;;;;;;9.43;4.60;;;12.80;98.00;;;;;;5014659;28;20469;-68
2024/04/07 02:21:55;;;;;;;13.97;5.87;;;12.90;98.00;;;;;;5014363;28;20455;-68
2024/04/07 02:24:22;;;;;;;12.23;5.63;;;12.90;98.00;;;;;;5014436;28;21205;-67
2024/04/07 02:26:48;;;;;;;13.63;6.90;;;12.90;98.00;;;;;;5013318;28;20462;-67
2024/04/07 02:29:16;;;;;;;15.50;7.90;;;12.90;98.00;;;;;;5014390;28;20460;-67
2024/04/07 02:31:42;;;;;;;14.90;7.33;;;12.90;98.00;;;;;;5014093;28;20463;-67
2024/04/07 02:34:11;;;;;;;10.13;5.83;;;12.90;98.00;;;;;;5013042;28;20797;-67
2024/04/07 02:36:37;;;;;;;14.17;6.00;;;12.80;98.00;;;;;;5013959;28;20460;-67
2024/04/07 02:39:09;;;;;;;8.70;5.17;;;12.90;98.00;;;;;;5014198;28;20459;-67
2024/04/07 02:41:35;;;;;;;11.23;5.57;;;12.90;98.00;;;;;;5014178;28;20641;-67
2024/04/07 02:44:02;;;;;;;9.20;5.10;;;13.00;98.00;;;;;;5014038;28;20468;-67
2024/04/07 02:49:16;;;;;;;9.50;5.20;;;12.90;98.00;;;;;;5014139;28;20597;-67
2024/04/07 02:51:44;;;;;;;8.53;5.10;;;12.90;98.00;;;;;;5012473;28;20542;-67
2024/04/07 02:54:11;;;;;;;9.30;4.87;;;12.80;98.00;;;;;;5014014;28;20459;-68
2024/04/07 02:56:37;;;;;;;12.60;4.73;;;12.60;98.00;;;;;;5013922;28;20478;-67
2024/04/07 02:59:04;;;;;;;11.70;4.70;;;12.60;98.00;;;;;;5013885;28;20467;-67
2024/04/07 03:01:32;;;;;;;9.07;4.80;;;12.60;98.00;;;;;;5013783;28;20992;-68
2024/04/07 03:03:57;;;;;;;7.97;4.50;;;12.70;98.00;;;;;;5013483;28;20948;-67
2024/04/07 03:06:26;;;;;;;6.57;4.20;;;12.80;98.00;;;;;;5013159;28;20468;-67
2024/04/07 03:08:57;;;;;;;8.10;4.63;;;12.80;98.00;;;;;;5012487;28;20459;-67
2024/04/07 03:11:24;;;;;;;7.97;4.63;;;12.80;98.00;;;;;;5013280;28;20466;-66
2024/04/07 03:13:50;;;;;;;7.00;4.43;;;12.80;98.00;;;;;;5013674;28;20791;-67
2024/04/07 03:16:17;;;;;;;7.60;4.13;;;12.70;98.00;;;;;;5013686;28;20546;-67
2024/04/07 03:18:43;;;;;;;7.40;4.20;;;12.80;98.00;;;;;;5013779;28;20466;-67
2024/04/07 03:21:11;;;;;;;6.80;4.40;;;12.80;98.00;;;;;;5013517;28;20483;-67
2024/04/07 03:23:38;;;;;;;7.47;4.50;;;12.70;98.00;;;;;;5013416;28;20538;-67
2024/04/07 03:26:05;;;;;;;6.70;4.10;;;12.60;98.00;;;;;;5013347;28;20470;-67
2024/04/07 03:28:31;;;;;;;8.10;4.40;;;12.60;98.00;;;;;;5013512;28;20456;-67
2024/04/07 03:30:59;;;;;;;5.97;3.90;;;12.60;98.00;;;;;;5013179;28;20965;-67
2024/04/07 03:33:24;;;;;;;5.50;3.93;;;12.70;98.00;;;;;;5012877;28;20504;-67
2024/04/07 03:36:01;;;;;;;8.20;3.77;;;12.40;98.00;;;;;;5013069;28;20657;-67
2024/04/07 03:38:28;;;;;;;6.43;4.20;;;12.40;98.00;;;;;;5013160;28;20474;-68
2024/04/07 03:40:57;;;;;;;7.37;4.13;;;12.60;98.00;;;;;;5012915;28;21148;-67
2024/04/07 03:43:24;;;;;;;7.57;4.50;;;12.50;98.00;;;;;;5012721;28;20455;-68
2024/04/07 03:46:00;;;;;;;7.53;4.40;;;12.60;98.00;;;;;;5012821;28;20455;-67
2024/04/07 03:48:27;;;;;;;7.73;4.33;;;12.70;98.00;;;;;;5012780;28;20466;-67
2024/04/07 03:50:56;;;;;;;6.13;4.00;;;12.70;98.00;;;;;;5012894;28;20491;-67
2024/04/07 03:53:22;;;;;;;7.07;4.10;;;12.70;98.00;;;;;;5012764;28;20447;-67
2024/04/07 03:55:49;;;;;;;8.07;4.63;;;12.60;98.00;;;;;;5007773;28;20485;-67
2024/04/07 03:58:22;;;;;;;10.57;5.57;;;12.60;98.00;;;;;;4993033;28;20927;-67
2024/04/07 04:00:49;;;;;;;7.90;4.33;;;12.80;98.00;;;;;;4992767;28;20484;-67
2024/04/07 04:03:15;;;;;;;5.13;3.67;;;12.60;98.00;;;;;;4991701;28;20453;-67
2024/04/07 04:05:42;;;;;;;6.80;4.13;;;12.60;98.00;;;;;;4991475;28;20471;-67
2024/04/07 04:08:08;;;;;;;6.47;4.37;;;12.50;98.00;;;;;;4992809;28;20507;-67
2024/04/07 04:10:39;;;;;;;6.40;4.00;;;12.60;98.00;;;;;;4992926;28;20998;-67
2024/04/07 04:13:05;;;;;;;9.23;4.37;;;12.60;98.00;;;;;;4992813;28;20452;-67
2024/04/07 04:15:36;;;;;;;6.90;4.00;;;12.60;98.00;;;;;;4992871;28;20460;-67
2024/04/07 04:18:05;;;;;;;9.53;4.43;;;12.50;98.00;;;;;;4992428;28;20555;-67
2024/04/07 04:20:33;;;;;;;10.10;4.23;;;12.60;98.00;;;;;;4991494;28;20528;-67
2024/04/07 04:22:59;;;;;;;6.00;4.23;;;12.60;98.00;;;;;;4991954;28;20461;-67
2024/04/07 04:25:26;;;;;;;7.03;3.63;;;12.60;98.00;;;;;;4992595;28;20547;-67
2024/04/07 04:27:53;;;;;;;9.80;4.30;;;12.60;98.00;;;;;;4992480;28;20764;-67
2024/04/07 04:30:20;;;;;;;6.67;4.43;;;12.70;98.00;;;;;;4991430;28;20515;-67
2024/04/07 04:32:48;;;;;;;7.37;4.40;;;12.80;98.00;;;;;;4992547;28;20461;-67
2024/04/07 04:35:16;;;;;;;7.63;3.90;;;12.80;98.00;;;;;;4992515;28;20518;-67
2024/04/07 04:37:43;;;;;;;7.47;3.90;;;12.70;98.00;;;;;;4992325;28;20510;-67
2024/04/07 04:40:11;;;;;;;8.90;4.53;;;12.60;98.00;;;;;;4992384;28;20490;-67
2024/04/07 04:42:37;;;;;;;10.20;4.57;;;12.50;98.00;;;;;;4991221;28;20467;-67
2024/04/07 04:45:07;;;;;;;6.77;4.30;;;12.40;98.00;;;;;;4992390;28;20559;-67
2024/04/07 04:47:34;;;;;;;7.63;4.40;;;12.60;98.00;;;;;;4991172;28;20464;-67
2024/04/07 04:50:03;;;;;;;7.87;4.37;;;12.80;98.00;;;;;;4992309;28;20460;-67
2024/04/07 04:52:29;;;;;;;7.10;4.37;;;12.80;98.00;;;;;;4991906;28;20468;-67
2024/04/07 04:54:58;;;;;;;6.43;4.20;;;12.90;98.00;;;;;;4992026;28;20465;-67
2024/04/07 04:57:24;;;;;;;14.80;4.40;;;12.70;98.00;;;;;;4992017;28;20456;-67
2024/04/07 04:59:53;;;;;;;8.63;4.77;;;12.50;98.00;;;;;;4992105;28;20568;-67
2024/04/07 05:02:19;;;;;;;6.33;3.83;;;12.40;98.00;;;;;;4990941;28;20535;-67
2024/04/07 05:04:46;;;;;;;11.13;4.43;;;12.40;98.00;;;;;;4990772;28;20555;-67
2024/04/07 05:07:15;;;;;;;6.83;4.20;;;12.40;98.00;;;;;;4992117;28;20468;-66
2024/04/07 05:09:42;;;;;;;7.23;4.00;;;12.30;98.00;;;;;;4990912;28;20519;-67
2024/04/07 05:12:08;;;;;;;7.97;4.20;;;12.30;98.00;;;;;;4991876;28;20550;-67
2024/04/07 05:14:35;;;;;;;7.80;4.13;;;12.30;98.00;;;;;;4991934;28;20939;-67
2024/04/07 05:17:03;;;;;;;7.33;4.00;;;12.30;98.00;;;;;;4992042;28;20482;-67
2024/04/07 05:19:30;;;;;;;8.17;3.90;;;12.20;98.00;;;;;;4991755;28;20571;-67
2024/04/07 05:21:56;;;;;;;5.57;3.63;;;12.20;98.00;;;;;;4991448;28;20540;-67
2024/04/07 05:24:26;;;;;;;6.20;3.50;;;12.20;98.00;;;;;;4991655;28;20456;-68
2024/04/07 05:26:52;;;;;;;5.40;3.40;;;12.30;98.00;;;;;;4991327;28;20507;-67
2024/04/07 05:29:19;;;;;;;5.10;3.43;;;12.20;98.00;;;;;;4990042;28;20460;-67
2024/04/07 05:31:46;;;;;;;5.30;3.50;;;12.20;98.00;;;;;;4991411;28;20459;-67
2024/04/07 05:34:13;;;;;;;4.73;3.10;;;12.30;98.00;;;;;;4991948;28;20563;-67
2024/04/07 05:36:39;;;;;;;7.20;3.73;;;12.50;98.00;;;;;;4995548;28;20946;-67
2024/04/07 05:39:07;;;;;;;7.80;3.97;;;12.60;98.00;;;;;;4995409;28;20468;-67
2024/04/07 05:41:34;;;;;;;5.50;3.67;;;12.70;98.00;;;;;;4995661;28;21010;-66
2024/04/07 05:44:01;;;;;;;7.10;4.00;;;12.60;98.00;;;;;;4995908;28;20589;-67
2024/04/07 05:46:28;;;;;;;8.97;4.60;;;12.70;98.00;;;;;;4995961;28;20456;-67
2024/04/07 05:48:56;;;;;;;10.30;3.90;;;12.70;98.00;;;;;;4996111;28;20460;-67
2024/04/07 05:51:23;;;;;;;5.80;3.80;;;12.80;98.00;;;;;;4996139;28;20985;-67
2024/04/07 05:53:50;;;;;;;7.03;3.90;;;12.70;98.00;;;;;;4995988;28;20482;-67
2024/04/07 05:56:17;;;;;;;6.80;4.40;;;12.70;98.00;;;;;;4995922;28;20831;-67
2024/04/07 05:58:53;;;;;;;6.67;4.40;;;12.90;98.00;;;;;;4995848;28;20514;-70
2024/04/07 06:01:19;;;;;;;7.23;4.37;;;12.90;98.00;;;;;;4995953;28;20488;-70
2024/04/07 06:03:49;;;;;;;6.10;3.90;;;12.90;98.00;;;;;;4995293;28;20512;-70
2024/04/07 06:06:15;;;;;;;8.50;4.80;;;13.00;98.00;;;;;;4995055;28;20464;-70
2024/04/07 06:08:42;;;;;;;7.90;4.50;;;13.00;98.00;;;;;;4993734;28;20555;-70
2024/04/07 06:11:09;;;;;;;7.23;4.67;;;12.90;98.00;;;;;;4994918;28;20452;-70
2024/04/07 06:13:35;;;;;;;7.97;4.23;;;13.00;98.00;;;;;;4994941;28;20826;-70
2024/04/07 06:16:05;;;;;;;7.47;4.20;;;13.00;98.00;;;;;;4994379;28;20464;-69
2024/04/07 06:18:34;;;;;;;16.63;7.90;;;13.00;98.00;;;;;;4995683;28;20507;-69
2024/04/07 06:21:01;;;;;;;10.67;5.30;;;13.00;98.00;;;;;;4995488;28;20550;-68
2024/04/07 06:23:27;;;;;;;8.23;4.37;;;13.10;98.00;;;;;;4995407;28;20806;-68
2024/04/07 06:25:54;;;;;;;7.53;4.73;;;13.10;98.00;;;;;;4995515;28;20466;-69
2024/04/07 06:28:20;;;;;;;9.87;4.60;;;13.20;98.00;;;;;;4995508;28;20460;-68
2024/04/07 06:30:51;;;;;;;6.77;4.00;;;13.20;98.00;;;;;;5012955;28;20957;-69
2024/04/07 06:33:21;;;;;;;6.90;4.30;;;13.20;98.00;;;;;;5014923;28;20454;-68
2024/04/07 06:35:48;;;;;;;8.93;4.10;;;13.10;98.00;;;;;;5015143;28;20581;-69
2024/04/07 06:38:14;;;;;;;5.60;3.57;;;13.20;98.00;;;;;;5015054;28;20456;-69
2024/04/07 06:40:41;;;;;;;6.47;4.00;;;13.40;98.00;;;;;;5014813;28;20898;-69
2024/04/07 06:43:07;;;;;;;8.70;4.30;;;13.80;98.00;;;;;;5014876;28;20521;-68
2024/04/07 06:45:35;;;;;;;8.03;3.83;;;13.90;98.00;;;;;;5014606;28;20846;-68
2024/04/07 06:48:01;;;;;;;6.37;3.83;;;13.90;98.00;;;;;;5014200;28;20459;-68
2024/04/07 06:50:29;;;;;;;5.77;4.00;;;13.90;98.00;;;;;;5014760;28;20464;-68
2024/04/07 06:52:55;;;;;;;7.67;3.87;;;14.10;98.00;;;;;;5014510;28;20451;-68
2024/04/07 06:55:22;;;;;;;6.23;3.77;;;14.10;98.00;;;;;;5014853;28;20469;-68
2024/04/07 06:57:49;;;;;;;6.90;4.30;;;14.20;98.00;;;;;;5013602;28;20451;-69
2024/04/07 07:00:16;;;;;;;5.60;3.77;;;14.40;98.00;;;;;;5013411;28;20474;-68
2024/04/07 07:02:42;;;;;;;7.10;4.20;;;14.40;98.00;;;;;;5014330;28;20462;-68
2024/04/07 07:05:09;;;;;;;6.70;3.70;;;14.50;98.00;;;;;;5014444;28;20477;-68
2024/04/07 07:07:37;;;;;;;7.87;4.47;;;14.60;98.00;;;;;;5014025;28;20459;-69
2024/04/07 07:10:05;;;;;;;7.87;4.40;;;14.70;98.00;;;;;;5013512;28;20475;-69
2024/04/07 07:12:31;;;;;;;6.70;4.10;;;14.80;98.00;;;;;;5014001;28;20459;-69
2024/04/07 07:14:58;;;;;;;8.03;4.20;;;14.80;98.00;;;;;;5012860;28;20460;-69
2024/04/07 07:17:24;;;;;;;6.57;4.03;;;14.90;98.00;;;;;;5014222;28;20455;-69
2024/04/07 07:19:51;;;;;;;10.00;4.40;;;15.00;98.00;;;;;;5012383;28;20491;-69
2024/04/07 07:22:19;;;;;;;7.37;3.83;;;15.10;98.00;;;;;;5013730;28;20487;-68
2024/04/07 07:24:47;;;;;;;7.00;4.23;;;15.10;98.00;;;;;;5012749;28;20473;-68
2024/04/07 07:27:13;;;;;;;14.10;4.20;;;15.10;98.00;;;;;;5013754;28;20462;-69
2024/04/07 07:29:43;;;;;;;7.07;4.50;;;15.20;98.00;;;;;;5013838;28;20474;-68
2024/04/07 07:32:11;;;;;;;8.13;3.47;;;15.20;98.00;;;;;;5012419;28;20448;-65
2024/04/07 07:34:38;;;;;;;5.17;3.40;;;15.40;98.00;;;;;;5013782;28;20538;-65
2024/04/07 07:37:04;;;;;;;6.83;4.27;;;15.60;98.00;;;;;;5013022;28;20946;-65
2024/04/07 07:39:32;;;;;;;9.57;4.67;;;15.80;98.00;;;;;;5013768;28;20897;-65
2024/04/07 07:41:59;;;;;;;7.47;4.33;;;15.90;98.00;;;;;;5012839;28;20847;-65
2024/04/07 07:44:27;;;;;;;8.90;4.17;;;16.10;98.00;;;;;;5013760;28;20464;-65
2024/04/07 07:46:53;;;;;;;8.43;4.40;;;16.30;98.00;;;;;;5013147;28;20456;-65
2024/04/07 07:49:20;;;;;;;5.70;3.90;;;16.40;98.00;;;;;;5013627;28;20943;-65
2024/04/07 07:51:46;;;;;;;7.07;4.27;;;16.40;98.00;;;;;;5013474;28;20459;-65
2024/04/07 07:54:13;;;;;;;7.40;3.90;;;16.70;98.00;;;;;;5013271;28;21030;-65
2024/04/07 07:56:39;;;;;;;7.00;4.30;;;16.70;98.00;;;;;;5013419;28;20475;-65
2024/04/07 07:59:08;;;;;;;6.90;4.50;;;16.70;98.00;;;;;;5011397;28;20459;-66
2024/04/07 08:01:34;;;;;;;8.27;4.50;;;16.60;98.00;;;;;;5013030;28;20492;-66
2024/04/07 08:04:01;;;;;;;7.40;4.20;;;16.70;98.00;;;;;;5013002;28;20887;-66
2024/04/07 08:06:28;;;;;;;19.67;5.20;;;16.80;98.00;;;;;;5011674;28;20452;-66
2024/04/07 08:08:55;;;;;;;5.90;4.00;;;16.90;98.00;;;;;;5013105;28;20495;-65
2024/04/07 08:11:23;;;;;;;7.50;4.00;;;17.10;98.00;;;;;;5013119;28;20930;-66
2024/04/07 08:13:51;;;;;;;10.73;4.40;;;17.40;98.00;;;;;;5012873;28;21008;-65
2024/04/07 08:16:19;;;;;;;8.53;4.63;;;17.60;98.00;;;;;;5013061;28;20550;-65
2024/04/07 08:18:47;;;;;;;8.37;4.50;;;17.70;98.00;;;;;;5012498;28;20460;-65
2024/04/07 08:21:15;;;;;;;7.33;4.20;;;17.70;98.00;;;;;;5012766;28;20522;-65
2024/04/07 08:23:42;;;;;;;7.87;4.60;;;17.70;98.00;;;;;;5012824;28;20823;-65
2024/04/07 08:26:09;;;;;;;5.93;4.03;;;17.70;98.00;;;;;;5012806;28;20463;-66
2024/04/07 08:28:36;;;;;;;6.40;4.43;;;17.90;98.00;;;;;;5012805;28;20467;-66
2024/04/07 08:31:02;;;;;;;7.23;4.10;;;18.00;98.00;;;;;;5012641;28;20452;-66
2024/04/07 08:33:30;;;;;;;5.57;3.77;;;18.10;98.00;;;;;;5012959;28;20459;-66
2024/04/07 08:35:57;;;;;;;7.63;4.10;;;18.20;98.00;;;;;;5003777;28;20460;-66
2024/04/07 08:38:24;;;;;;;7.43;4.10;;;18.30;98.00;;;;;;5012630;28;20949;-66
2024/04/07 08:40:50;;;;;;;5.93;3.90;;;18.40;98.00;;;;;;5012783;28;20463;-66
2024/04/07 08:43:20;;;;;;;9.13;3.67;;;18.60;98.00;;;;;;5011070;28;20456;-66
2024/04/07 08:45:49;;;;;;;6.43;3.60;;;18.80;98.00;;;;;;5000261;28;20456;-66
2024/04/07 08:48:19;;;;;;;6.70;4.17;;;19.00;98.00;;;;;;4993166;28;20468;-66
2024/04/07 08:50:52;;;;;;;13.53;4.40;;;19.20;98.00;;;;;;4992983;28;20484;-67
2024/04/07 08:53:23;;;;;;;9.33;3.80;;;19.30;98.00;;;;;;4992748;28;20467;-67
2024/04/07 08:55:50;;;;;;;10.30;3.83;;;19.50;98.00;;;;;;4992677;28;20507;-67
2024/04/07 08:58:20;;;;;;;14.13;3.97;;;19.60;98.00;;;;;;4990737;28;20491;-67
2024/04/07 09:00:54;;;;;;;5.27;3.37;;;19.70;98.00;;;;;;4992242;28;20467;-67
2024/04/07 09:03:21;;;;;;;7.77;3.40;;;19.70;98.00;;;;;;4991966;28;20457;-67
2024/04/07 09:05:50;;;;;;;7.13;3.27;;;19.70;98.00;;;;;;4991981;28;20448;-67
2024/04/07 09:08:17;;;;;;;6.17;3.50;;;19.90;98.00;;;;;;4992250;28;20461;-68
2024/04/07 09:10:43;;;;;;;6.47;3.43;;;20.00;98.00;;;;;;4990711;28;20445;-66
2024/04/07 09:13:11;;;;;;;4.20;2.87;;;20.10;98.00;;;;;;4992642;28;20986;-67
2024/04/07 09:15:37;;;;;;;9.00;3.53;;;20.20;98.00;;;;;;4993778;28;20868;-69
2024/04/07 09:18:06;;;;;;;9.40;3.47;;;20.10;98.00;;;;;;5002130;28;20467;-68
2024/04/07 09:20:32;;;;;;;7.10;3.70;;;20.10;98.00;;;;;;4992022;28;20472;-66
2024/04/07 09:23:01;;;;;;;6.10;3.23;;;20.20;98.00;;;;;;4992002;28;20575;-66
2024/04/07 09:25:28;;;;;;;5.17;3.20;;;20.20;98.00;;;;;;4991744;28;20547;-67
2024/04/07 09:27:57;;;;;;;5.27;3.00;;;20.10;98.00;;;;;;4991968;28;20468;-66
2024/04/07 09:30:26;;;;;;;6.23;3.07;;;20.20;98.00;;;;;;4992341;28;20456;-66
2024/04/07 09:32:53;;;;;;;7.77;3.40;;;20.20;98.00;;;;;;4992122;28;20482;-66
2024/04/07 09:35:19;;;;;;;4.90;2.80;;;20.30;98.00;;;;;;4992408;28;20778;-66
2024/04/07 09:37:47;;;;;;;5.80;3.10;;;20.40;98.00;;;;;;4991739;28;20460;-69
2024/04/07 09:40:17;;;;;;;7.33;3.40;;;20.60;98.00;;;;;;5001660;28;20922;-70
2024/04/07 09:42:45;;;;;;;8.50;3.20;;;20.60;98.00;;;;;;5011458;28;20487;-69
2024/04/07 09:45:12;;;;;;;10.63;3.13;;;20.80;98.00;;;;;;5011721;28;20455;-69
2024/04/07 09:47:44;;;;;;;5.57;2.83;;;20.90;98.00;;;;;;5010415;28;20470;-70
2024/04/07 09:50:18;;;;;;;8.20;3.13;;;21.00;98.00;;;;;;5011764;28;20493;-69
2024/04/07 09:52:51;;;;;;;5.37;2.70;;;21.00;98.00;;;;;;5011784;28;20603;-70
2024/04/07 09:55:22;;;;;;;7.77;3.23;;;21.20;98.00;;;;;;5010498;28;20455;-69
2024/04/07 09:57:49;;;;;;;6.53;3.13;;;21.30;98.00;;;;;;5011456;28;20458;-70
2024/04/07 10:00:15;;;;;;;11.73;3.30;;;21.40;98.00;;;;;;5011448;28;20447;-70
2024/04/07 10:02:45;;;;;;;7.20;2.93;;;21.50;98.00;;;;;;5011306;28;20533;-70
2024/04/07 10:05:11;;;;;;;4.63;3.00;;;21.50;98.00;;;;;;5011642;28;20459;-69
2024/04/07 10:07:42;;;;;;;6.43;3.53;;;21.50;98.00;;;;;;5011617;28;20988;-70
2024/04/07 10:10:09;;;;;;;7.30;2.87;;;21.60;98.00;;;;;;5011178;28;20471;-69
2024/04/07 10:12:44;;;;;;;5.60;2.87;;;21.80;98.00;;;;;;5011408;28;20464;-69
2024/04/07 10:15:22;;;;;;;6.00;2.70;;;21.80;98.00;;;;;;5011544;28;20467;-70
2024/04/07 10:17:49;;;;;;;7.53;3.30;;;21.90;98.00;;;;;;5011509;28;20996;-68
2024/04/07 10:20:15;;;;;;;7.50;3.20;;;21.90;98.00;;;;;;5209992;22;20478;-70
2024/04/07 10:22:43;;;;;;;8.20;3.03;;;21.90;98.00;;;;;;5032709;28;20540;-70
2024/04/07 10:25:10;;;;;;;6.67;3.47;;;22.00;98.00;;;;;;5034006;28;20454;-70
2024/04/07 10:27:44;;;;;;;7.60;2.90;;;22.40;98.00;;;;;;5033943;28;20545;-69
2024/04/07 10:30:11;;;;;;;8.43;3.00;;;22.70;98.00;;;;;;5034287;28;20875;-69
2024/04/07 10:32:41;;;;;;;10.77;3.20;;;23.00;96.90;;;;;;5034554;28;20948;-69
2024/04/07 10:35:08;;;;;;;5.63;3.07;;;23.30;98.00;;;;;;5034531;28;20473;-69
2024/04/07 10:37:36;;;;;;;7.70;3.00;;;23.60;98.00;;;;;;5034726;28;20489;-69
2024/04/07 10:40:05;;;;;;;5.73;2.83;;;23.70;98.00;;;;;;5034315;28;20945;-70
2024/04/07 10:42:33;;;;;;;6.10;3.10;;;23.80;98.00;;;;;;5032770;28;20502;-70
2024/04/07 10:45:01;;;;;;;14.20;4.00;;;24.00;94.80;;;;;;5034381;28;20465;-70
2024/04/07 10:47:28;;;;;;;4.50;2.93;;;24.20;94.70;;;;;;5034199;28;20505;-71
2024/04/07 10:49:55;;;;;;;5.43;2.70;;;24.10;94.40;;;;;;5034268;28;20450;-70
2024/04/07 10:52:26;;;;;;;6.30;2.63;;;24.40;94.50;;;;;;5033879;28;20493;-70
2024/04/07 10:54:53;;;;;;;9.07;2.67;;;24.60;93.40;;;;;;5033994;28;20798;-70
2024/04/07 10:57:20;;;;;;;6.13;2.90;;;24.70;90.40;;;;;;5033906;28;20470;-70
2024/04/07 10:59:46;;;;;;;6.03;2.60;;;24.80;93.10;;;;;;5049525;28;20509;-70
2024/04/07 11:02:15;;;;;;;9.20;3.30;;;24.90;91.40;;;;;;5033666;28;20910;-70
2024/04/07 11:04:42;;;;;;;8.43;2.90;;;24.90;88.00;;;;;;5033792;28;20455;-70
2024/04/07 11:07:10;;;;;;;11.70;3.10;;;24.80;92.50;;;;;;5049216;28;20892;-70
2024/04/07 11:09:39;;;;;;;7.53;3.00;;;24.60;90.40;;;;;;5033928;28;20450;-69
2024/04/07 11:12:07;;;;;;;11.23;2.83;;;24.50;92.50;;;;;;5033739;28;20887;-70
2024/04/07 11:14:33;;;;;;;8.57;2.83;;;24.40;93.20;;;;;;5033801;28;20455;-70
2024/04/07 11:17:03;;;;;;;4.23;2.57;;;24.30;93.50;;;;;;5033529;28;20459;-70
2024/04/07 11:19:31;;;;;;;9.63;3.37;;;24.20;93.80;;;;;;5033689;28;20455;-69
2024/04/07 11:21:58;;;;;;;5.03;2.60;;;24.10;92.60;;;;;;5033551;28;20969;-70
2024/04/07 11:24:31;;;;;;;8.23;3.17;;;24.10;93.70;;;;;;5033788;28;20450;-69
2024/04/07 11:26:58;;;;;;;8.03;3.03;;;24.20;95.40;;;;;;5033526;28;20458;-70
2024/04/07 11:29:27;;;;;;;5.30;2.80;;;24.20;92.90;;;;;;5033565;28;20455;-70
2024/04/07 11:31:55;;;;;;;6.80;2.57;;;24.40;94.10;;;;;;5033159;28;20903;-70
2024/04/07 11:34:21;;;;;;;9.30;3.20;;;24.50;91.00;;;;;;5033370;28;20470;-70
2024/04/07 11:36:50;;;;;;;5.10;3.03;;;24.60;91.70;;;;;;5048512;28;20799;-70
2024/04/07 11:39:16;;;;;;;7.17;2.70;;;24.70;90.30;;;;;;5033095;28;20458;-69
2024/04/07 11:41:43;;;;;;;7.83;2.83;;;24.70;88.60;;;;;;5033350;28;20876;-70
2024/04/07 11:44:10;;;;;;;8.70;2.97;;;24.70;87.30;;;;;;5048332;28;20450;-70
2024/04/07 11:46:37;;;;;;;7.13;3.47;;;24.80;87.60;;;;;;5032883;28;20473;-69
2024/04/07 11:49:03;;;;;;;14.33;2.77;;;25.10;90.00;;;;;;5032557;28;20458;-70
2024/04/07 11:51:33;;;;;;;8.10;2.83;;;25.30;87.20;;;;;;5032847;28;20490;-70
2024/04/07 11:54:01;;;;;;;6.97;3.10;;;25.50;86.60;;;;;;5033658;28;20512;-70
2024/04/07 11:56:28;;;;;;;10.60;3.00;;;25.80;87.30;;;;;;5048470;28;20462;-69
2024/04/07 11:58:55;;;;;;;9.90;3.20;;;26.10;87.80;;;;;;5032984;28;20494;-69
2024/04/07 12:01:21;;;;;;;8.47;3.20;;;26.20;91.00;;;;;;5032886;28;20830;-70
2024/04/07 12:03:48;;;;;;;7.23;3.10;;;26.30;89.70;;;;;;5032677;28;20458;-69
2024/04/07 12:06:15;;;;;;;6.57;3.13;;;26.60;88.70;;;;;;5032949;28;21134;-70
2024/04/07 12:08:43;;;;;;;16.50;3.40;;;26.60;89.60;;;;;;5048247;28;20463;-70
2024/04/07 12:11:10;;;;;;;4.93;2.70;;;26.70;87.70;;;;;;5032781;28;20536;-71
2024/04/07 12:13:38;;;;;;;10.07;3.30;;;26.90;87.50;;;;;;5032750;28;20527;-70
2024/04/07 12:16:06;;;;;;;5.43;3.00;;;27.20;84.10;;;;;;5032652;28;20455;-70
2024/04/07 12:18:33;;;;;;;8.13;3.17;;;27.20;84.10;;;;;;5032874;28;20462;-70
2024/04/07 12:20:59;;;;;;;6.03;3.00;;;27.50;86.30;;;;;;5032837;28;20552;-70
2024/04/07 12:23:26;;;;;;;5.63;3.07;;;27.80;86.60;;;;;;5032495;28;20502;-70
2024/04/07 12:25:53;;;;;;;8.53;3.33;;;27.90;87.40;;;;;;5032452;28;20455;-71
2024/04/07 12:28:21;;;;;;;9.87;3.40;;;27.80;87.00;;;;;;5047667;28;20872;-70
2024/04/07 12:30:50;;;;;;;6.13;3.10;;;28.00;86.00;;;;;;5032211;28;20450;-70
2024/04/07 12:33:17;;;;;;;5.70;3.50;;;27.90;85.70;;;;;;5032171;28;20581;-71
2024/04/07 12:35:43;;;;;;;6.80;3.20;;;27.70;85.20;;;;;;5032381;28;20458;-71
2024/04/07 12:38:10;;;;;;;6.53;3.10;;;27.40;86.10;;;;;;5032102;28;20960;-71
2024/04/07 12:40:43;;;;;;;5.43;3.17;;;27.30;87.30;;;;;;5032468;28;20462;-66
2024/04/07 12:43:18;;;;;;;8.50;3.50;;;27.30;87.80;;;;;;5030807;28;21110;-66
2024/04/07 12:45:46;;;;;;;6.17;3.30;;;27.40;86.90;;;;;;5030403;28;20449;-70
2024/04/07 12:48:17;;;;;;;7.60;3.23;;;27.50;87.80;;;;;;5032427;28;20843;-70
2024/04/07 12:50:43;;;;;;;9.60;3.77;;;27.70;86.60;;;;;;5032391;28;20458;-70